sensor_id;sensor_type;location;lat;lon;timestamp;temperature;humidity
13806;DHT22;6974;53.606;9.872;2023-11-18T00:02:19;6.50;99.90
13806;DHT22;6974;53.606;9.872;2023-11-18T00:04:46;6.60;99.90
13806;DHT22;6974;53.606;9.872;2023-11-18T00:07:13;6.60;99.90
13806;DHT22;6974;53.606;9.872;2023-11-18T00:09:39;6.60;99.90
13806;DHT22;6974;53.606;9.872;2023-11-18T00:12:08;6.60;99.90
13806;DHT22;6974;53.606;9.872;2023-11-18T00:14:36;6.60;99.90
13806;DHT22;6974;53.606;9.872;2023-11-18T00:17:03;6.60;99.90
13806;DHT22;6974;53.606;9.872;2023-11-18T00:19:30;6.60;99.90
13806;DHT22;6974;53.606;9.872;2023-11-18T00:21:57;6.60;99.90
13806;DHT22;6974;53.606;9.872;2023-11-18T00:24:24;6.60;99.90
13806;DHT22;6974;53.606;9.872;2023-11-18T00:26:52;6.60;99.90
13806;DHT22;6974;53.606;9.872;2023-11-18T00:29:19;6.60;99.90
13806;DHT22;6974;53.606;9.872;2023-11-18T00:31:47;6.60;99.90
13806;DHT22;6974;53.606;9.872;2023-11-18T00:34:14;6.60;99.90
13806;DHT22;6974;53.606;9.872;2023-11-18T00:36:41;6.60;99.90
13806;DHT22;6974;53.606;9.872;2023-11-18T00:39:08;6.60;99.90
13806;DHT22;6974;53.606;9.872;2023-11-18T00:41:34;6.60;99.90
13806;DHT22;6974;53.606;9.872;2023-11-18T00:44:01;6.60;99.90
13806;DHT22;6974;53.606;9.872;2023-11-18T00:46:28;6.60;99.90
13806;DHT22;6974;53.606;9.872;2023-11-18T00:48:57;6.60;99.90
13806;DHT22;6974;53.606;9.872;2023-11-18T00:51:24;6.60;99.90
13806;DHT22;6974;53.606;9.872;2023-11-18T00:53:51;6.60;99.90
13806;DHT22;6974;53.606;9.872;2023-11-18T00:56:20;6.60;99.90
13806;DHT22;6974;53.606;9.872;2023-11-18T00:58:47;6.60;99.90
13806;DHT22;6974;53.606;9.872;2023-11-18T01:01:14;6.60;99.90
13806;DHT22;6974;53.606;9.872;2023-11-18T01:03:43;6.60;99.90
13806;DHT22;6974;53.606;9.872;2023-11-18T01:06:11;6.50;99.90
13806;DHT22;6974;53.606;9.872;2023-11-18T01:08:38;6.50;99.90
13806;DHT22;6974;53.606;9.872;2023-11-18T01:11:05;6.60;99.90
13806;DHT22;6974;53.606;9.872;2023-11-18T01:13:32;6.50;99.90
13806;DHT22;6974;53.606;9.872;2023-11-18T01:15:59;6.50;99.90
13806;DHT22;6974;53.606;9.872;2023-11-18T01:18:27;6.60;99.90
13806;DHT22;6974;53.606;9.872;2023-11-18T01:20:54;6.50;99.90
13806;DHT22;6974;53.606;9.872;2023-11-18T01:23:22;6.50;99.90
13806;DHT22;6974;53.606;9.872;2023-11-18T01:25:49;6.50;99.90
13806;DHT22;6974;53.606;9.872;2023-11-18T01:28:17;6.50;99.90
13806;DHT22;6974;53.606;9.872;2023-11-18T01:30:43;6.50;99.90
13806;DHT22;6974;53.606;9.872;2023-11-18T01:33:11;6.50;99.90
13806;DHT22;6974;53.606;9.872;2023-11-18T01:35:40;6.60;99.90
13806;DHT22;6974;53.606;9.872;2023-11-18T01:38:08;6.60;99.90
13806;DHT22;6974;53.606;9.872;2023-11-18T01:40:38;6.60;99.90
13806;DHT22;6974;53.606;9.872;2023-11-18T01:43:08;6.60;99.90
13806;DHT22;6974;53.606;9.872;2023-11-18T01:45:37;6.60;99.90
13806;DHT22;6974;53.606;9.872;2023-11-18T01:48:07;6.60;99.90
13806;DHT22;6974;53.606;9.872;2023-11-18T01:50:35;6.60;99.90
13806;DHT22;6974;53.606;9.872;2023-11-18T01:53:02;6.60;99.90
13806;DHT22;6974;53.606;9.872;2023-11-18T01:55:29;6.50;99.90
13806;DHT22;6974;53.606;9.872;2023-11-18T01:57:58;6.50;99.90
13806;DHT22;6974;53.606;9.872;2023-11-18T02:00:25;6.60;99.90
13806;DHT22;6974;53.606;9.872;2023-11-18T02:02:53;6.60;99.90
13806;DHT22;6974;53.606;9.872;2023-11-18T02:05:20;6.60;99.90
13806;DHT22;6974;53.606;9.872;2023-11-18T02:07:47;6.60;99.90
13806;DHT22;6974;53.606;9.872;2023-11-18T02:10:14;6.60;99.90
13806;DHT22;6974;53.606;9.872;2023-11-18T02:12:48;6.60;99.90
13806;DHT22;6974;53.606;9.872;2023-11-18T02:15:21;6.60;99.90
13806;DHT22;6974;53.606;9.872;2023-11-18T02:17:50;6.60;99.90
13806;DHT22;6974;53.606;9.872;2023-11-18T02:20:19;6.60;99.90
13806;DHT22;6974;53.606;9.872;2023-11-18T02:22:47;6.60;99.90
13806;DHT22;6974;53.606;9.872;2023-11-18T02:25:16;6.60;99.90
13806;DHT22;6974;53.606;9.872;2023-11-18T02:27:45;6.60;99.90
13806;DHT22;6974;53.606;9.872;2023-11-18T02:30:13;6.70;99.90
13806;DHT22;6974;53.606;9.872;2023-11-18T02:32:46;6.70;99.90
13806;DHT22;6974;53.606;9.872;2023-11-18T02:35:24;6.70;99.90
13806;DHT22;6974;53.606;9.872;2023-11-18T02:37:54;6.60;99.90
13806;DHT22;6974;53.606;9.872;2023-11-18T02:40:27;6.70;99.90
13806;DHT22;6974;53.606;9.872;2023-11-18T02:42:58;6.70;99.90
13806;DHT22;6974;53.606;9.872;2023-11-18T02:45:26;6.70;99.90
13806;DHT22;6974;53.606;9.872;2023-11-18T02:47:53;6.60;99.90
13806;DHT22;6974;53.606;9.872;2023-11-18T02:50:23;6.60;99.90
13806;DHT22;6974;53.606;9.872;2023-11-18T02:52:50;6.60;99.90
13806;DHT22;6974;53.606;9.872;2023-11-18T02:55:17;6.60;99.90
13806;DHT22;6974;53.606;9.872;2023-11-18T02:57:44;6.60;99.90
13806;DHT22;6974;53.606;9.872;2023-11-18T03:00:13;6.60;99.90
13806;DHT22;6974;53.606;9.872;2023-11-18T03:02:44;6.60;99.90
13806;DHT22;6974;53.606;9.872;2023-11-18T03:05:12;6.60;99.90
13806;DHT22;6974;53.606;9.872;2023-11-18T03:07:41;6.60;99.90
13806;DHT22;6974;53.606;9.872;2023-11-18T03:10:10;6.60;99.90
13806;DHT22;6974;53.606;9.872;2023-11-18T03:12:37;6.60;99.90
13806;DHT22;6974;53.606;9.872;2023-11-18T03:15:05;6.60;99.90
13806;DHT22;6974;53.606;9.872;2023-11-18T03:17:36;6.60;99.90
13806;DHT22;6974;53.606;9.872;2023-11-18T03:20:04;6.60;99.90
13806;DHT22;6974;53.606;9.872;2023-11-18T03:22:34;6.60;99.90
13806;DHT22;6974;53.606;9.872;2023-11-18T03:25:01;6.60;99.90
13806;DHT22;6974;53.606;9.872;2023-11-18T03:27:28;6.50;99.90
13806;DHT22;6974;53.606;9.872;2023-11-18T03:29:55;6.50;99.90
13806;DHT22;6974;53.606;9.872;2023-11-18T03:32:22;6.50;99.90
13806;DHT22;6974;53.606;9.872;2023-11-18T03:34:50;6.50;99.90
13806;DHT22;6974;53.606;9.872;2023-11-18T03:37:17;6.50;99.90
13806;DHT22;6974;53.606;9.872;2023-11-18T03:39:45;6.50;99.90
13806;DHT22;6974;53.606;9.872;2023-11-18T03:42:12;6.50;99.90
13806;DHT22;6974;53.606;9.872;2023-11-18T03:44:38;6.40;99.90
13806;DHT22;6974;53.606;9.872;2023-11-18T03:47:06;6.50;99.90
13806;DHT22;6974;53.606;9.872;2023-11-18T03:49:33;6.50;99.90
13806;DHT22;6974;53.606;9.872;2023-11-18T03:52:01;6.50;99.90
13806;DHT22;6974;53.606;9.872;2023-11-18T03:54:28;6.50;99.90
13806;DHT22;6974;53.606;9.872;2023-11-18T03:56:55;6.50;99.90
13806;DHT22;6974;53.606;9.872;2023-11-18T03:59:21;6.40;99.90
13806;DHT22;6974;53.606;9.872;2023-11-18T04:01:48;6.40;99.90
13806;DHT22;6974;53.606;9.872;2023-11-18T04:04:16;6.50;99.90
13806;DHT22;6974;53.606;9.872;2023-11-18T04:06:43;6.40;99.90
13806;DHT22;6974;53.606;9.872;2023-11-18T04:09:13;6.40;99.90
13806;DHT22;6974;53.606;9.872;2023-11-18T04:11:40;6.30;99.90
13806;DHT22;6974;53.606;9.872;2023-11-18T04:14:07;6.30;99.90
13806;DHT22;6974;53.606;9.872;2023-11-18T04:16:34;6.30;99.90
13806;DHT22;6974;53.606;9.872;2023-11-18T04:19:01;6.30;99.90
13806;DHT22;6974;53.606;9.872;2023-11-18T04:21:27;6.30;99.90
13806;DHT22;6974;53.606;9.872;2023-11-18T04:23:54;6.30;99.90
13806;DHT22;6974;53.606;9.872;2023-11-18T04:26:22;6.20;99.90
13806;DHT22;6974;53.606;9.872;2023-11-18T04:28:50;6.20;99.90
13806;DHT22;6974;53.606;9.872;2023-11-18T04:31:17;6.20;99.90
13806;DHT22;6974;53.606;9.872;2023-11-18T04:33:43;6.20;99.90
13806;DHT22;6974;53.606;9.872;2023-11-18T04:36:10;6.10;99.90
13806;DHT22;6974;53.606;9.872;2023-11-18T04:38:39;6.10;99.90
13806;DHT22;6974;53.606;9.872;2023-11-18T04:41:05;6.00;99.90
13806;DHT22;6974;53.606;9.872;2023-11-18T04:43:34;6.00;99.90
13806;DHT22;6974;53.606;9.872;2023-11-18T04:46:00;6.00;99.90
13806;DHT22;6974;53.606;9.872;2023-11-18T04:48:27;5.90;99.90
13806;DHT22;6974;53.606;9.872;2023-11-18T04:50:54;5.90;99.90
13806;DHT22;6974;53.606;9.872;2023-11-18T04:53:21;5.90;99.90
13806;DHT22;6974;53.606;9.872;2023-11-18T04:55:48;5.90;99.90
13806;DHT22;6974;53.606;9.872;2023-11-18T04:58:15;5.90;99.90
13806;DHT22;6974;53.606;9.872;2023-11-18T05:00:43;5.80;99.90
13806;DHT22;6974;53.606;9.872;2023-11-18T05:03:10;5.80;99.90
13806;DHT22;6974;53.606;9.872;2023-11-18T05:05:39;5.80;99.90
13806;DHT22;6974;53.606;9.872;2023-11-18T05:08:06;5.80;99.90
13806;DHT22;6974;53.606;9.872;2023-11-18T05:10:33;5.80;99.90
13806;DHT22;6974;53.606;9.872;2023-11-18T05:13:00;5.80;99.90
13806;DHT22;6974;53.606;9.872;2023-11-18T05:15:27;5.80;99.90
13806;DHT22;6974;53.606;9.872;2023-11-18T05:17:57;5.80;99.90
13806;DHT22;6974;53.606;9.872;2023-11-18T05:20:23;5.70;99.90
13806;DHT22;6974;53.606;9.872;2023-11-18T05:22:50;5.70;99.90
13806;DHT22;6974;53.606;9.872;2023-11-18T05:25:17;5.70;99.90
13806;DHT22;6974;53.606;9.872;2023-11-18T05:27:44;5.60;99.90
13806;DHT22;6974;53.606;9.872;2023-11-18T05:30:12;5.60;99.90
13806;DHT22;6974;53.606;9.872;2023-11-18T05:32:39;5.60;99.90
13806;DHT22;6974;53.606;9.872;2023-11-18T05:35:08;5.60;99.90
13806;DHT22;6974;53.606;9.872;2023-11-18T05:37:37;5.60;99.90
13806;DHT22;6974;53.606;9.872;2023-11-18T05:40:07;5.60;99.90
13806;DHT22;6974;53.606;9.872;2023-11-18T05:42:36;5.60;99.90
13806;DHT22;6974;53.606;9.872;2023-11-18T05:45:07;5.60;99.90
13806;DHT22;6974;53.606;9.872;2023-11-18T05:47:42;5.60;99.90
13806;DHT22;6974;53.606;9.872;2023-11-18T05:50:11;5.60;99.90
13806;DHT22;6974;53.606;9.872;2023-11-18T05:52:40;5.60;99.90
13806;DHT22;6974;53.606;9.872;2023-11-18T05:55:07;5.50;99.90
13806;DHT22;6974;53.606;9.872;2023-11-18T05:57:34;5.60;99.90
13806;DHT22;6974;53.606;9.872;2023-11-18T06:00:02;5.60;99.90
13806;DHT22;6974;53.606;9.872;2023-11-18T06:02:31;5.60;99.90
13806;DHT22;6974;53.606;9.872;2023-11-18T06:04:59;5.60;99.90
13806;DHT22;6974;53.606;9.872;2023-11-18T06:07:27;5.60;99.90
13806;DHT22;6974;53.606;9.872;2023-11-18T06:09:54;5.60;99.90
13806;DHT22;6974;53.606;9.872;2023-11-18T06:12:21;5.60;99.90
13806;DHT22;6974;53.606;9.872;2023-11-18T06:14:48;5.60;99.90
13806;DHT22;6974;53.606;9.872;2023-11-18T06:17:17;5.50;99.90
13806;DHT22;6974;53.606;9.872;2023-11-18T06:19:44;5.50;99.90
13806;DHT22;6974;53.606;9.872;2023-11-18T06:22:11;5.50;99.90
13806;DHT22;6974;53.606;9.872;2023-11-18T06:24:39;5.50;99.90
13806;DHT22;6974;53.606;9.872;2023-11-18T06:27:06;5.40;99.90
13806;DHT22;6974;53.606;9.872;2023-11-18T06:29:34;5.50;99.90
13806;DHT22;6974;53.606;9.872;2023-11-18T06:32:01;5.50;99.90
13806;DHT22;6974;53.606;9.872;2023-11-18T06:34:29;5.50;99.90
13806;DHT22;6974;53.606;9.872;2023-11-18T06:36:55;5.40;99.90
13806;DHT22;6974;53.606;9.872;2023-11-18T06:39:22;5.40;99.90
13806;DHT22;6974;53.606;9.872;2023-11-18T06:41:56;5.40;99.90
13806;DHT22;6974;53.606;9.872;2023-11-18T06:44:23;5.40;99.90
13806;DHT22;6974;53.606;9.872;2023-11-18T06:46:50;5.50;99.90
13806;DHT22;6974;53.606;9.872;2023-11-18T06:49:17;5.40;99.90
13806;DHT22;6974;53.606;9.872;2023-11-18T06:51:45;5.40;99.90
13806;DHT22;6974;53.606;9.872;2023-11-18T06:54:12;5.40;99.90
13806;DHT22;6974;53.606;9.872;2023-11-18T06:56:41;5.40;99.90
13806;DHT22;6974;53.606;9.872;2023-11-18T06:59:11;5.50;99.90
13806;DHT22;6974;53.606;9.872;2023-11-18T07:01:38;5.50;99.90
13806;DHT22;6974;53.606;9.872;2023-11-18T07:04:06;5.50;99.90
13806;DHT22;6974;53.606;9.872;2023-11-18T07:06:34;5.50;99.90
13806;DHT22;6974;53.606;9.872;2023-11-18T07:09:04;5.50;99.90
13806;DHT22;6974;53.606;9.872;2023-11-18T07:11:39;5.50;99.90
13806;DHT22;6974;53.606;9.872;2023-11-18T07:14:06;5.50;99.90
13806;DHT22;6974;53.606;9.872;2023-11-18T07:16:37;5.60;99.90
13806;DHT22;6974;53.606;9.872;2023-11-18T07:19:04;5.60;99.90
13806;DHT22;6974;53.606;9.872;2023-11-18T07:21:31;5.60;99.90
13806;DHT22;6974;53.606;9.872;2023-11-18T07:23:59;5.60;99.90
13806;DHT22;6974;53.606;9.872;2023-11-18T07:26:26;5.60;99.90
13806;DHT22;6974;53.606;9.872;2023-11-18T07:28:53;5.60;99.90
13806;DHT22;6974;53.606;9.872;2023-11-18T07:31:20;5.60;99.90
13806;DHT22;6974;53.606;9.872;2023-11-18T07:33:49;5.60;99.90
13806;DHT22;6974;53.606;9.872;2023-11-18T07:36:16;5.60;99.90
13806;DHT22;6974;53.606;9.872;2023-11-18T07:38:46;5.60;99.90
13806;DHT22;6974;53.606;9.872;2023-11-18T07:41:13;5.60;99.90
13806;DHT22;6974;53.606;9.872;2023-11-18T07:43:49;5.60;99.90
13806;DHT22;6974;53.606;9.872;2023-11-18T07:46:16;5.60;99.90
13806;DHT22;6974;53.606;9.872;2023-11-18T07:48:43;5.70;99.90
13806;DHT22;6974;53.606;9.872;2023-11-18T07:51:12;5.70;99.90
13806;DHT22;6974;53.606;9.872;2023-11-18T07:53:40;5.70;99.90
13806;DHT22;6974;53.606;9.872;2023-11-18T07:56:08;5.70;99.90
13806;DHT22;6974;53.606;9.872;2023-11-18T07:58:37;5.80;99.90
13806;DHT22;6974;53.606;9.872;2023-11-18T08:01:04;5.80;99.90
13806;DHT22;6974;53.606;9.872;2023-11-18T08:03:33;5.80;99.90
13806;DHT22;6974;53.606;9.872;2023-11-18T08:06:00;5.90;99.90
13806;DHT22;6974;53.606;9.872;2023-11-18T08:08:29;6.00;99.90
13806;DHT22;6974;53.606;9.872;2023-11-18T08:10:56;6.00;99.90
13806;DHT22;6974;53.606;9.872;2023-11-18T08:13:23;6.00;99.90
13806;DHT22;6974;53.606;9.872;2023-11-18T08:15:50;6.00;99.90
13806;DHT22;6974;53.606;9.872;2023-11-18T08:18:17;6.10;99.90
13806;DHT22;6974;53.606;9.872;2023-11-18T08:20:44;6.20;99.90
13806;DHT22;6974;53.606;9.872;2023-11-18T08:23:12;6.20;99.90
13806;DHT22;6974;53.606;9.872;2023-11-18T08:25:40;6.20;99.90
13806;DHT22;6974;53.606;9.872;2023-11-18T08:28:08;6.30;99.90
13806;DHT22;6974;53.606;9.872;2023-11-18T08:30:37;6.30;99.90
13806;DHT22;6974;53.606;9.872;2023-11-18T08:33:04;6.30;99.90
13806;DHT22;6974;53.606;9.872;2023-11-18T08:35:34;6.30;99.90
13806;DHT22;6974;53.606;9.872;2023-11-18T08:38:01;6.30;99.90
13806;DHT22;6974;53.606;9.872;2023-11-18T08:40:29;6.40;99.90
13806;DHT22;6974;53.606;9.872;2023-11-18T08:42:57;6.40;99.90
13806;DHT22;6974;53.606;9.872;2023-11-18T08:45:25;6.40;99.90
13806;DHT22;6974;53.606;9.872;2023-11-18T08:47:55;6.40;99.90
13806;DHT22;6974;53.606;9.872;2023-11-18T08:50:22;6.50;99.90
13806;DHT22;6974;53.606;9.872;2023-11-18T08:52:50;6.50;99.90
13806;DHT22;6974;53.606;9.872;2023-11-18T08:55:23;6.50;99.90
13806;DHT22;6974;53.606;9.872;2023-11-18T08:58:05;6.50;99.90
13806;DHT22;6974;53.606;9.872;2023-11-18T09:00:41;6.60;99.90
13806;DHT22;6974;53.606;9.872;2023-11-18T09:03:16;6.70;99.90
13806;DHT22;6974;53.606;9.872;2023-11-18T09:05:54;6.70;99.90
13806;DHT22;6974;53.606;9.872;2023-11-18T09:08:25;6.80;99.90
13806;DHT22;6974;53.606;9.872;2023-11-18T09:10:53;6.80;99.90
13806;DHT22;6974;53.606;9.872;2023-11-18T09:13:22;6.90;99.90
13806;DHT22;6974;53.606;9.872;2023-11-18T09:15:50;6.90;99.90
13806;DHT22;6974;53.606;9.872;2023-11-18T09:18:17;7.00;99.90
13806;DHT22;6974;53.606;9.872;2023-11-18T09:20:45;7.10;99.90
13806;DHT22;6974;53.606;9.872;2023-11-18T09:23:12;7.10;99.90
13806;DHT22;6974;53.606;9.872;2023-11-18T09:25:41;7.10;99.90
13806;DHT22;6974;53.606;9.872;2023-11-18T09:28:12;7.20;99.90
13806;DHT22;6974;53.606;9.872;2023-11-18T09:30:42;7.30;99.90
13806;DHT22;6974;53.606;9.872;2023-11-18T09:33:18;7.30;99.90
13806;DHT22;6974;53.606;9.872;2023-11-18T09:35:55;7.30;99.90
13806;DHT22;6974;53.606;9.872;2023-11-18T09:38:25;7.40;99.90
13806;DHT22;6974;53.606;9.872;2023-11-18T09:40:53;7.40;99.90
13806;DHT22;6974;53.606;9.872;2023-11-18T09:43:20;7.50;99.90
13806;DHT22;6974;53.606;9.872;2023-11-18T09:45:54;7.60;99.90
13806;DHT22;6974;53.606;9.872;2023-11-18T09:48:22;7.60;99.90
13806;DHT22;6974;53.606;9.872;2023-11-18T09:50:52;7.60;99.90
13806;DHT22;6974;53.606;9.872;2023-11-18T09:53:20;7.60;99.90
13806;DHT22;6974;53.606;9.872;2023-11-18T09:55:54;7.70;99.90
13806;DHT22;6974;53.606;9.872;2023-11-18T09:58:29;7.70;99.90
13806;DHT22;6974;53.606;9.872;2023-11-18T10:01:03;7.80;99.90
13806;DHT22;6974;53.606;9.872;2023-11-18T10:03:30;7.80;99.90
13806;DHT22;6974;53.606;9.872;2023-11-18T10:05:58;7.80;99.90
13806;DHT22;6974;53.606;9.872;2023-11-18T10:08:30;7.80;99.90
13806;DHT22;6974;53.606;9.872;2023-11-18T10:10:57;7.80;99.90
13806;DHT22;6974;53.606;9.872;2023-11-18T10:13:31;7.80;99.90
13806;DHT22;6974;53.606;9.872;2023-11-18T10:16:01;7.80;99.90
13806;DHT22;6974;53.606;9.872;2023-11-18T10:18:32;7.80;99.90
13806;DHT22;6974;53.606;9.872;2023-11-18T10:21:02;7.90;99.90
13806;DHT22;6974;53.606;9.872;2023-11-18T10:23:33;7.90;99.90
13806;DHT22;6974;53.606;9.872;2023-11-18T10:26:03;7.90;99.90
13806;DHT22;6974;53.606;9.872;2023-11-18T10:28:32;7.90;99.90
13806;DHT22;6974;53.606;9.872;2023-11-18T10:31:00;8.00;99.90
13806;DHT22;6974;53.606;9.872;2023-11-18T10:33:29;8.00;99.90
13806;DHT22;6974;53.606;9.872;2023-11-18T10:35:59;8.00;99.90
13806;DHT22;6974;53.606;9.872;2023-11-18T10:38:29;8.00;99.90
13806;DHT22;6974;53.606;9.872;2023-11-18T10:40:57;8.10;99.90
13806;DHT22;6974;53.606;9.872;2023-11-18T10:43:27;8.10;99.90
13806;DHT22;6974;53.606;9.872;2023-11-18T10:46:04;8.10;99.90
13806;DHT22;6974;53.606;9.872;2023-11-18T10:48:38;8.20;99.90
13806;DHT22;6974;53.606;9.872;2023-11-18T10:51:08;8.20;99.90
13806;DHT22;6974;53.606;9.872;2023-11-18T10:53:37;8.20;99.90
13806;DHT22;6974;53.606;9.872;2023-11-18T10:56:05;8.30;99.90
13806;DHT22;6974;53.606;9.872;2023-11-18T10:58:35;8.40;99.90
13806;DHT22;6974;53.606;9.872;2023-11-18T11:01:05;8.40;99.90
13806;DHT22;6974;53.606;9.872;2023-11-18T11:03:52;8.40;99.90
13806;DHT22;6974;53.606;9.872;2023-11-18T11:06:23;8.40;99.90
13806;DHT22;6974;53.606;9.872;2023-11-18T11:08:50;8.30;99.90
13806;DHT22;6974;53.606;9.872;2023-11-18T11:11:20;8.30;99.90
13806;DHT22;6974;53.606;9.872;2023-11-18T11:13:49;8.30;99.90
13806;DHT22;6974;53.606;9.872;2023-11-18T11:16:19;8.20;99.90
13806;DHT22;6974;53.606;9.872;2023-11-18T11:18:48;8.20;99.90
13806;DHT22;6974;53.606;9.872;2023-11-18T11:21:24;8.20;99.90
13806;DHT22;6974;53.606;9.872;2023-11-18T11:23:57;8.30;99.90
13806;DHT22;6974;53.606;9.872;2023-11-18T11:26:34;8.30;99.90
13806;DHT22;6974;53.606;9.872;2023-11-18T11:29:14;8.30;99.90
13806;DHT22;6974;53.606;9.872;2023-11-18T11:31:50;8.30;99.90
13806;DHT22;6974;53.606;9.872;2023-11-18T11:34:24;8.30;99.90
13806;DHT22;6974;53.606;9.872;2023-11-18T11:36:56;8.30;99.90
13806;DHT22;6974;53.606;9.872;2023-11-18T11:39:25;8.30;99.90
13806;DHT22;6974;53.606;9.872;2023-11-18T11:41:55;8.30;99.90
13806;DHT22;6974;53.606;9.872;2023-11-18T11:44:22;8.30;99.90
13806;DHT22;6974;53.606;9.872;2023-11-18T11:46:55;8.20;99.90
13806;DHT22;6974;53.606;9.872;2023-11-18T11:49:26;8.30;99.90
13806;DHT22;6974;53.606;9.872;2023-11-18T11:52:01;8.30;99.90
13806;DHT22;6974;53.606;9.872;2023-11-18T11:54:35;8.30;99.90
13806;DHT22;6974;53.606;9.872;2023-11-18T11:57:04;8.30;99.90
13806;DHT22;6974;53.606;9.872;2023-11-18T11:59:56;8.30;99.90
13806;DHT22;6974;53.606;9.872;2023-11-18T12:02:25;8.30;99.90
13806;DHT22;6974;53.606;9.872;2023-11-18T12:04:55;8.20;99.90
13806;DHT22;6974;53.606;9.872;2023-11-18T12:07:25;8.20;99.90
13806;DHT22;6974;53.606;9.872;2023-11-18T12:09:57;8.20;99.90
13806;DHT22;6974;53.606;9.872;2023-11-18T12:12:26;8.10;99.90
13806;DHT22;6974;53.606;9.872;2023-11-18T12:14:54;8.10;99.90
13806;DHT22;6974;53.606;9.872;2023-11-18T12:17:23;8.10;99.90
13806;DHT22;6974;53.606;9.872;2023-11-18T12:19:54;8.00;99.90
13806;DHT22;6974;53.606;9.872;2023-11-18T12:22:26;8.00;99.90
13806;DHT22;6974;53.606;9.872;2023-11-18T12:27:58;8.00;99.90
13806;DHT22;6974;53.606;9.872;2023-11-18T12:30:41;8.10;99.90
13806;DHT22;6974;53.606;9.872;2023-11-18T12:33:19;8.00;99.90
13806;DHT22;6974;53.606;9.872;2023-11-18T12:39:37;8.00;99.90
13806;DHT22;6974;53.606;9.872;2023-11-18T12:42:09;8.00;99.90
13806;DHT22;6974;53.606;9.872;2023-11-18T12:45:12;8.00;99.90
13806;DHT22;6974;53.606;9.872;2023-11-18T12:47:48;8.00;99.90
13806;DHT22;6974;53.606;9.872;2023-11-18T12:50:17;8.00;99.90
13806;DHT22;6974;53.606;9.872;2023-11-18T12:52:51;8.00;99.90
13806;DHT22;6974;53.606;9.872;2023-11-18T12:55:20;7.90;99.90
13806;DHT22;6974;53.606;9.872;2023-11-18T12:57:47;8.00;99.90
13806;DHT22;6974;53.606;9.872;2023-11-18T13:00:16;7.90;99.90
13806;DHT22;6974;53.606;9.872;2023-11-18T13:02:52;8.00;99.90
13806;DHT22;6974;53.606;9.872;2023-11-18T13:05:19;8.00;99.90
13806;DHT22;6974;53.606;9.872;2023-11-18T13:07:46;7.90;99.90
13806;DHT22;6974;53.606;9.872;2023-11-18T13:10:14;7.90;99.90
13806;DHT22;6974;53.606;9.872;2023-11-18T13:12:43;7.90;99.90
13806;DHT22;6974;53.606;9.872;2023-11-18T13:15:12;7.90;99.90
13806;DHT22;6974;53.606;9.872;2023-11-18T13:17:38;7.90;99.90
13806;DHT22;6974;53.606;9.872;2023-11-18T13:20:12;7.90;99.90
13806;DHT22;6974;53.606;9.872;2023-11-18T13:22:41;7.90;99.90
13806;DHT22;6974;53.606;9.872;2023-11-18T13:25:08;7.90;99.90
13806;DHT22;6974;53.606;9.872;2023-11-18T13:27:35;7.90;99.90
13806;DHT22;6974;53.606;9.872;2023-11-18T13:30:06;7.90;99.90
13806;DHT22;6974;53.606;9.872;2023-11-18T13:32:40;7.90;99.90
13806;DHT22;6974;53.606;9.872;2023-11-18T13:35:07;7.90;99.90
13806;DHT22;6974;53.606;9.872;2023-11-18T13:37:35;7.90;99.90
13806;DHT22;6974;53.606;9.872;2023-11-18T13:40:02;7.90;99.90
13806;DHT22;6974;53.606;9.872;2023-11-18T13:42:31;7.90;99.90
13806;DHT22;6974;53.606;9.872;2023-11-18T13:44:59;7.90;99.90
13806;DHT22;6974;53.606;9.872;2023-11-18T13:47:28;7.80;99.90
13806;DHT22;6974;53.606;9.872;2023-11-18T13:49:55;7.80;99.90
13806;DHT22;6974;53.606;9.872;2023-11-18T13:52:24;7.80;99.90
13806;DHT22;6974;53.606;9.872;2023-11-18T13:54:52;7.80;99.90
13806;DHT22;6974;53.606;9.872;2023-11-18T13:57:21;7.80;99.90
13806;DHT22;6974;53.606;9.872;2023-11-18T13:59:49;7.70;99.90
13806;DHT22;6974;53.606;9.872;2023-11-18T14:02:16;7.70;99.90
13806;DHT22;6974;53.606;9.872;2023-11-18T14:04:44;7.80;99.90
13806;DHT22;6974;53.606;9.872;2023-11-18T14:07:14;7.70;99.90
13806;DHT22;6974;53.606;9.872;2023-11-18T14:09:42;7.70;99.90
13806;DHT22;6974;53.606;9.872;2023-11-18T14:12:11;7.70;99.90
13806;DHT22;6974;53.606;9.872;2023-11-18T14:14:38;7.70;99.90
13806;DHT22;6974;53.606;9.872;2023-11-18T14:17:05;7.70;99.90
13806;DHT22;6974;53.606;9.872;2023-11-18T14:19:35;7.70;99.90
13806;DHT22;6974;53.606;9.872;2023-11-18T14:22:05;7.70;99.90
13806;DHT22;6974;53.606;9.872;2023-11-18T14:24:32;7.60;99.90
13806;DHT22;6974;53.606;9.872;2023-11-18T14:26:59;7.70;99.90
13806;DHT22;6974;53.606;9.872;2023-11-18T14:29:26;7.60;99.90
13806;DHT22;6974;53.606;9.872;2023-11-18T14:31:53;7.60;99.90
13806;DHT22;6974;53.606;9.872;2023-11-18T14:34:20;7.60;99.90
13806;DHT22;6974;53.606;9.872;2023-11-18T14:36:47;7.60;99.90
13806;DHT22;6974;53.606;9.872;2023-11-18T14:39:16;7.60;99.90
13806;DHT22;6974;53.606;9.872;2023-11-18T14:41:43;7.60;99.90
13806;DHT22;6974;53.606;9.872;2023-11-18T14:44:11;7.60;99.90
13806;DHT22;6974;53.606;9.872;2023-11-18T14:46:38;7.60;99.90
13806;DHT22;6974;53.606;9.872;2023-11-18T14:49:06;7.50;99.90
13806;DHT22;6974;53.606;9.872;2023-11-18T14:51:33;7.50;99.90
13806;DHT22;6974;53.606;9.872;2023-11-18T14:54:01;7.50;99.90
13806;DHT22;6974;53.606;9.872;2023-11-18T14:56:29;7.50;99.90
13806;DHT22;6974;53.606;9.872;2023-11-18T14:58:56;7.40;99.90
13806;DHT22;6974;53.606;9.872;2023-11-18T15:01:23;7.40;99.90
13806;DHT22;6974;53.606;9.872;2023-11-18T15:03:51;7.40;99.90
13806;DHT22;6974;53.606;9.872;2023-11-18T15:06:24;7.40;99.90
13806;DHT22;6974;53.606;9.872;2023-11-18T15:08:51;7.40;99.90
13806;DHT22;6974;53.606;9.872;2023-11-18T15:11:21;7.40;99.90
13806;DHT22;6974;53.606;9.872;2023-11-18T15:13:49;7.40;99.90
13806;DHT22;6974;53.606;9.872;2023-11-18T15:16:18;7.40;99.90
13806;DHT22;6974;53.606;9.872;2023-11-18T15:18:45;7.40;99.90
13806;DHT22;6974;53.606;9.872;2023-11-18T15:21:13;7.40;99.90
13806;DHT22;6974;53.606;9.872;2023-11-18T15:23:40;7.50;99.90
13806;DHT22;6974;53.606;9.872;2023-11-18T15:26:08;7.40;99.90
13806;DHT22;6974;53.606;9.872;2023-11-18T15:28:35;7.40;99.90
13806;DHT22;6974;53.606;9.872;2023-11-18T15:31:03;7.40;99.90
13806;DHT22;6974;53.606;9.872;2023-11-18T15:33:30;7.30;99.90
13806;DHT22;6974;53.606;9.872;2023-11-18T15:35:57;7.40;99.90
13806;DHT22;6974;53.606;9.872;2023-11-18T15:38:24;7.40;99.90
13806;DHT22;6974;53.606;9.872;2023-11-18T15:40:52;7.40;99.90
13806;DHT22;6974;53.606;9.872;2023-11-18T15:43:18;7.40;99.90
13806;DHT22;6974;53.606;9.872;2023-11-18T15:45:45;7.40;99.90
13806;DHT22;6974;53.606;9.872;2023-11-18T15:48:13;7.40;99.90
13806;DHT22;6974;53.606;9.872;2023-11-18T15:50:40;7.40;99.90
13806;DHT22;6974;53.606;9.872;2023-11-18T15:53:07;7.30;99.90
13806;DHT22;6974;53.606;9.872;2023-11-18T15:55:38;7.30;99.90
13806;DHT22;6974;53.606;9.872;2023-11-18T15:58:07;7.30;99.90
13806;DHT22;6974;53.606;9.872;2023-11-18T16:00:35;7.30;99.90
13806;DHT22;6974;53.606;9.872;2023-11-18T16:03:03;7.30;99.90
13806;DHT22;6974;53.606;9.872;2023-11-18T16:05:35;7.30;99.90
13806;DHT22;6974;53.606;9.872;2023-11-18T16:08:02;7.30;99.90
13806;DHT22;6974;53.606;9.872;2023-11-18T16:10:32;7.30;99.90
13806;DHT22;6974;53.606;9.872;2023-11-18T16:13:00;7.30;99.90
13806;DHT22;6974;53.606;9.872;2023-11-18T16:15:29;7.30;99.90
13806;DHT22;6974;53.606;9.872;2023-11-18T16:17:57;7.30;99.90
13806;DHT22;6974;53.606;9.872;2023-11-18T16:20:27;7.40;99.90